Time;durP1;ratioP1;P1;durP2;ratioP2;P2;SDS_P1;SDS_P2;PMS_P1;PMS_P2;Temp;Humidity;BMP_temperature;BMP_pressure;BME280_temperature;BME280_humidity;BME280_pressure;Samples;Min_cycle;Max_cycle;Signal;HPM_P1;HPM_P2
2023/09/09 00:00:39;;;;;;;8.88;7.30;;;;;;;21.95;66.59;99985.94;4971750;28;20122;-81
2023/09/09 00:03:06;;;;;;;9.23;6.88;;;;;;;21.95;66.73;99987.81;4930520;28;20108;-81
2023/09/09 00:05:33;;;;;;;10.93;6.93;;;;;;;21.92;66.77;99978.25;4933201;28;20439;-81
2023/09/09 00:08:00;;;;;;;8.23;7.30;;;;;;;21.88;66.82;99983.25;4948155;28;20587;-82
2023/09/09 00:10:27;;;;;;;11.85;7.30;;;;;;;21.86;66.67;99981.78;4945417;28;20042;-81
2023/09/09 00:12:54;;;;;;;10.35;6.45;;;;;;;21.86;66.34;99988.03;4930406;28;20546;-81
2023/09/09 00:15:21;;;;;;;9.70;7.55;;;;;;;21.84;66.43;99984.69;4945163;28;20047;-81
2023/09/09 00:17:48;;;;;;;9.57;6.75;;;;;;;21.80;66.46;99983.41;4961529;28;20038;-81
2023/09/09 00:20:14;;;;;;;9.50;7.20;;;;;;;21.76;66.36;99984.88;4934054;28;20047;-81
2023/09/09 00:22:41;;;;;;;9.50;6.57;;;;;;;21.75;66.40;99975.09;4952824;28;20567;-82
2023/09/09 00:25:08;;;;;;;8.73;6.95;;;;;;;21.75;66.23;99976.97;4960246;28;20054;-81
2023/09/09 00:27:35;;;;;;;12.05;7.72;;;;;;;21.69;66.43;99978.63;4965702;28;20461;-81
2023/09/09 00:30:02;;;;;;;11.63;6.88;;;;;;;21.68;66.51;99983.22;4942376;28;20070;-82
2023/09/09 00:32:29;;;;;;;9.65;7.03;;;;;;;21.65;66.33;99988.19;4933551;28;20043;-81
2023/09/09 00:34:56;;;;;;;9.00;6.60;;;;;;;21.62;66.45;99980.47;4929768;28;20510;-81
2023/09/09 00:37:23;;;;;;;8.70;6.85;;;;;;;21.60;66.59;99977.16;4915997;28;20076;-82
2023/09/09 00:39:50;;;;;;;12.02;6.68;;;;;;;21.59;66.38;99978.19;4949016;28;20050;-81
2023/09/09 00:42:17;;;;;;;9.60;6.47;;;;;;;21.60;66.33;99974.44;4972508;28;20130;-81
2023/09/09 00:44:44;;;;;;;9.80;7.35;;;;;;;21.58;66.19;99976.53;4957557;28;20518;-81
2023/09/09 00:47:10;;;;;;;7.65;6.28;;;;;;;21.55;66.19;99976.91;4930525;28;20130;-80
2023/09/09 00:49:38;;;;;;;9.55;6.85;;;;;;;21.51;66.30;99971.09;4934507;28;20045;-81
2023/09/09 00:52:05;;;;;;;8.02;6.47;;;;;;;21.50;66.27;99968.59;4934270;28;20420;-81
2023/09/09 00:54:32;;;;;;;8.63;6.63;;;;;;;21.50;66.41;99965.91;4935772;28;20055;-81
2023/09/09 00:57:00;;;;;;;9.43;6.70;;;;;;;21.49;66.48;99972.34;4955699;28;20043;-81
2023/09/09 00:59:27;;;;;;;10.05;6.80;;;;;;;21.46;66.45;99968.19;4953241;28;20081;-83
2023/09/09 01:01:56;;;;;;;7.75;6.28;;;;;;;21.44;66.30;99970.25;4933935;28;20126;-81
2023/09/09 01:04:23;;;;;;;8.02;7.22;;;;;;;21.41;66.42;99962.56;4975547;28;20046;-81
2023/09/09 01:06:52;;;;;;;9.52;6.97;;;;;;;21.40;66.41;99964.44;4953627;28;20047;-81
2023/09/09 01:09:19;;;;;;;8.55;6.88;;;;;;;21.38;66.56;99955.69;4940937;28;20148;-84
2023/09/09 01:11:45;;;;;;;8.70;6.70;;;;;;;21.36;66.29;99965.84;4929072;28;20138;-81
2023/09/09 01:14:13;;;;;;;8.73;6.82;;;;;;;21.37;66.42;99967.50;4933993;28;20105;-81
2023/09/09 01:16:41;;;;;;;9.60;6.60;;;;;;;21.34;66.34;99970.59;4947364;28;20422;-82
2023/09/09 01:19:08;;;;;;;8.10;6.53;;;;;;;21.32;66.18;99969.13;4936807;28;20039;-80
2023/09/09 01:21:36;;;;;;;10.77;7.25;;;;;;;21.31;66.28;99965.59;4966634;28;20047;-81
2023/09/09 01:24:03;;;;;;;9.15;6.40;;;;;;;21.29;66.47;99966.84;4970799;28;20051;-83
2023/09/09 01:26:29;;;;;;;7.10;6.35;;;;;;;21.30;66.29;99968.53;4973580;28;20047;-81
2023/09/09 01:28:56;;;;;;;10.98;6.53;;;;;;;21.28;66.05;99974.13;4955827;28;20113;-81
2023/09/09 01:31:23;;;;;;;9.45;6.88;;;;;;;21.26;66.23;99973.47;4918073;28;20050;-83
2023/09/09 01:33:55;;;;;;;8.90;6.50;;;;;;;21.25;66.25;99974.53;4950668;28;20039;-81
2023/09/09 01:36:22;;;;;;;8.33;6.40;;;;;;;21.25;66.26;99979.94;4919906;28;20053;-81
2023/09/09 01:38:48;;;;;;;8.57;6.28;;;;;;;21.22;66.41;99969.53;4931604;28;20112;-81
2023/09/09 01:41:15;;;;;;;9.13;6.80;;;;;;;21.21;66.11;99973.25;4962641;28;20138;-83
2023/09/09 01:43:42;;;;;;;8.45;6.57;;;;;;;21.20;66.00;99977.00;4933130;28;20051;-82
2023/09/09 01:46:09;;;;;;;8.35;6.53;;;;;;;21.18;65.91;99981.78;4946489;28;20514;-81
2023/09/09 01:48:37;;;;;;;7.75;5.88;;;;;;;21.13;66.03;99982.38;4934254;28;20066;-81
2023/09/09 01:51:05;;;;;;;9.77;6.63;;;;;;;21.12;66.12;99975.31;4944869;28;20042;-82
2023/09/09 01:53:32;;;;;;;8.35;6.88;;;;;;;21.10;66.00;99984.66;4933921;28;20122;-81
2023/09/09 01:55:59;;;;;;;8.45;6.28;;;;;;;21.14;66.11;99977.78;4919686;28;20102;-82
2023/09/09 01:58:27;;;;;;;8.73;6.57;;;;;;;21.13;65.73;99982.38;4959838;28;20521;-81
2023/09/09 02:00:54;;;;;;;9.57;6.70;;;;;;;21.09;65.98;99974.88;4932811;28;20058;-81
2023/09/09 02:03:21;;;;;;;8.38;6.18;;;;;;;21.09;65.62;99972.16;4913281;28;20043;-82
2023/09/09 02:05:48;;;;;;;7.78;6.32;;;;;;;21.06;65.73;99968.00;4945947;28;20514;-82
2023/09/09 02:08:15;;;;;;;11.00;6.68;;;;;;;21.03;65.75;99969.22;4940630;28;20089;-81
2023/09/09 02:10:42;;;;;;;7.55;6.35;;;;;;;21.01;65.79;99971.31;4929705;28;20055;-82
2023/09/09 02:13:09;;;;;;;8.73;6.47;;;;;;;21.01;65.71;99974.03;4929233;28;20089;-81
2023/09/09 02:15:36;;;;;;;10.50;6.72;;;;;;;20.99;65.94;99976.09;4912592;28;20039;-81
2023/09/09 02:18:03;;;;;;;7.50;6.70;;;;;;;20.99;65.80;99959.06;4951364;28;20045;-82
2023/09/09 02:20:29;;;;;;;7.82;6.45;;;;;;;20.97;66.00;99970.03;4938421;28;20039;-81
2023/09/09 02:22:56;;;;;;;9.57;6.40;;;;;;;20.95;66.14;99966.72;4966327;28;20551;-81
2023/09/09 02:25:23;;;;;;;8.13;6.47;;;;;;;20.94;65.96;99973.16;4927508;28;20134;-81
2023/09/09 02:27:50;;;;;;;6.78;5.85;;;;;;;20.93;65.94;99971.47;4947270;28;20407;-81
2023/09/09 02:30:17;;;;;;;9.43;6.57;;;;;;;20.90;65.73;99969.19;4924588;28;20117;-81
2023/09/09 02:32:43;;;;;;;10.15;6.35;;;;;;;20.89;65.83;99978.31;4951678;28;20122;-81
2023/09/09 02:35:11;;;;;;;7.63;6.10;;;;;;;20.88;65.51;99967.72;4946581;28;20119;-81
2023/09/09 02:37:37;;;;;;;7.97;6.10;;;;;;;20.88;65.50;99973.09;4944705;28;20043;-82
2023/09/09 02:40:05;;;;;;;8.25;5.75;;;;;;;20.87;65.61;99971.44;4952912;28;20460;-81
2023/09/09 02:42:31;;;;;;;9.20;6.45;;;;;;;20.84;65.66;99982.63;4958980;28;20136;-81
2023/09/09 02:44:58;;;;;;;8.05;5.85;;;;;;;20.81;65.67;99968.50;4908938;28;20126;-81
2023/09/09 02:47:25;;;;;;;8.63;6.78;;;;;;;20.79;65.56;99967.06;4971891;28;20395;-81
2023/09/09 02:49:52;;;;;;;7.43;6.13;;;;;;;20.78;65.63;99968.88;4939195;28;20047;-82
2023/09/09 02:52:21;;;;;;;9.52;6.38;;;;;;;20.76;65.55;99965.59;4944288;28;20045;-82
2023/09/09 02:54:48;;;;;;;8.02;6.47;;;;;;;20.75;65.57;99973.88;4947176;28;20141;-81
2023/09/09 02:57:14;;;;;;;8.52;5.80;;;;;;;20.75;65.67;99974.69;4911156;28;20391;-81
2023/09/09 02:59:42;;;;;;;7.43;6.40;;;;;;;20.72;65.46;99964.31;4917940;28;20102;-81
2023/09/09 03:02:12;;;;;;;11.77;6.65;;;;;;;20.70;65.32;99971.75;4944342;28;20039;-81
2023/09/09 03:04:39;;;;;;;10.73;7.10;;;;;;;20.67;65.70;99972.16;4961539;28;20056;-81
2023/09/09 03:07:05;;;;;;;8.27;6.47;;;;;;;20.67;66.08;99977.56;4945575;28;20046;-81
2023/09/09 03:09:33;;;;;;;10.10;6.38;;;;;;;20.65;65.59;99966.13;4924371;28;20645;-81
2023/09/09 03:12:01;;;;;;;8.30;5.82;;;;;;;20.58;65.78;99971.50;4913514;28;20059;-81
2023/09/09 03:14:28;;;;;;;9.88;5.95;;;;;;;20.57;65.55;99967.09;4956069;28;20043;-81
2023/09/09 03:16:56;;;;;;;7.03;6.25;;;;;;;20.55;65.73;99969.16;4953522;28;20126;-81
2023/09/09 03:19:23;;;;;;;12.07;6.43;;;;;;;20.53;65.85;99964.97;4936058;28;20059;-82
2023/09/09 03:21:50;;;;;;;6.78;6.03;;;;;;;20.52;65.71;99971.41;4968692;28;20138;-81
2023/09/09 03:24:17;;;;;;;8.77;5.95;;;;;;;20.49;65.92;99972.63;4948382;28;20069;-81
2023/09/09 03:26:44;;;;;;;7.18;6.07;;;;;;;20.51;65.57;99978.66;4928287;28;20042;-81
2023/09/09 03:29:10;;;;;;;11.07;6.25;;;;;;;20.48;66.08;99973.69;4955357;28;20042;-81
2023/09/09 03:31:37;;;;;;;7.95;6.50;;;;;;;20.47;65.61;99966.59;4956303;28;20071;-81
2023/09/09 03:34:04;;;;;;;8.13;6.53;;;;;;;20.44;65.74;99974.25;4969467;28;20070;-81
2023/09/09 03:36:34;;;;;;;10.25;6.47;;;;;;;20.43;65.82;99972.56;4927218;28;20050;-81
2023/09/09 03:39:03;;;;;;;7.45;5.72;;;;;;;20.41;66.01;99977.34;4935902;28;20134;-81
2023/09/09 03:41:30;;;;;;;8.32;6.22;;;;;;;20.38;65.86;99982.09;4953494;28;20051;-81
2023/09/09 03:43:57;;;;;;;10.82;6.45;;;;;;;20.38;65.78;99968.63;4925211;28;20055;-83
2023/09/09 03:46:24;;;;;;;10.55;6.63;;;;;;;20.38;65.68;99971.31;4955665;28;20128;-81
2023/09/09 03:48:52;;;;;;;8.88;6.00;;;;;;;20.37;65.90;99977.72;4913724;28;20133;-81
2023/09/09 03:51:22;;;;;;;11.35;6.40;;;;;;;20.34;65.73;99978.13;4925594;28;20057;-83
2023/09/09 03:53:49;;;;;;;8.63;5.80;;;;;;;20.35;65.91;99978.94;4958198;28;20499;-81
2023/09/09 03:56:17;;;;;;;9.80;6.50;;;;;;;20.32;65.71;99976.66;4926135;28;20051;-81
2023/09/09 03:58:44;;;;;;;8.77;6.32;;;;;;;20.30;65.72;99973.31;4961129;28;20066;-81
2023/09/09 04:01:12;;;;;;;8.85;6.75;;;;;;;20.28;65.86;99973.53;4955426;28;20063;-81
2023/09/09 04:03:40;;;;;;;8.48;6.28;;;;;;;20.24;65.68;99977.63;4946199;28;25169;-83
2023/09/09 04:06:12;;;;;;;8.20;6.13;;;;;;;20.25;65.69;99981.16;4908491;28;20055;-84
2023/09/09 04:08:40;;;;;;;9.57;6.40;;;;;;;20.22;65.71;99973.47;4943927;28;20522;-81
2023/09/09 04:11:08;;;;;;;10.00;6.57;;;;;;;20.22;65.86;99978.84;4943114;28;20059;-81
2023/09/09 04:13:37;;;;;;;10.73;5.85;;;;;;;20.20;65.66;99975.50;4923641;28;20451;-81
2023/09/09 04:16:05;;;;;;;10.23;6.53;;;;;;;20.21;65.81;99974.50;4926890;28;20121;-81
2023/09/09 04:18:32;;;;;;;7.85;6.15;;;;;;;20.12;66.10;99977.34;4926737;28;20508;-81
2023/09/09 04:21:12;;;;;;;11.77;6.68;;;;;;;20.12;65.70;99974.66;4927715;28;20453;-81
2023/09/09 04:23:39;;;;;;;7.53;6.53;;;;;;;20.13;65.91;99979.00;4944873;28;20402;-81
2023/09/09 04:26:07;;;;;;;8.10;7.20;;;;;;;20.11;65.87;99975.66;4947080;28;20482;-81
2023/09/09 04:28:34;;;;;;;8.05;5.97;;;;;;;20.09;65.97;99982.28;4930032;28;20485;-81
2023/09/09 04:31:02;;;;;;;9.55;5.82;;;;;;;20.06;65.97;99980.78;4927723;28;20046;-81
2023/09/09 04:33:29;;;;;;;7.80;6.30;;;;;;;20.02;66.08;99984.06;4957323;28;20043;-81
2023/09/09 04:35:56;;;;;;;8.13;6.25;;;;;;;20.00;66.09;99986.97;4957069;28;20061;-81
2023/09/09 04:38:23;;;;;;;11.40;6.78;;;;;;;20.01;66.13;99980.53;4955953;28;20050;-81
2023/09/09 04:40:51;;;;;;;10.55;6.45;;;;;;;20.03;66.24;99985.75;4929819;28;20599;-82
2023/09/09 04:43:18;;;;;;;7.40;6.35;;;;;;;20.02;65.82;99984.91;4940165;28;20065;-83
2023/09/09 04:45:45;;;;;;;8.80;6.43;;;;;;;20.01;65.75;99985.09;4964277;28;20047;-81
2023/09/09 04:48:12;;;;;;;9.25;7.00;;;;;;;20.00;66.04;99989.66;4932324;28;20049;-81
2023/09/09 04:50:39;;;;;;;10.85;6.50;;;;;;;19.97;66.16;99983.81;4917713;28;20066;-82
2023/09/09 04:53:07;;;;;;;9.65;6.18;;;;;;;20.00;65.82;99991.50;4932183;28;20570;-81
2023/09/09 04:55:34;;;;;;;9.73;6.35;;;;;;;19.92;65.92;99992.47;4917986;28;20048;-80
2023/09/09 04:58:03;;;;;;;8.55;6.65;;;;;;;19.91;65.61;99982.72;4932608;28;20412;-81
2023/09/09 05:00:29;;;;;;;8.65;7.03;;;;;;;19.92;65.53;99992.47;4916851;28;20055;-81
2023/09/09 05:02:56;;;;;;;9.30;5.93;;;;;;;19.92;66.05;99993.34;4962708;28;20046;-81
2023/09/09 05:05:24;;;;;;;10.00;6.70;;;;;;;19.94;65.89;100002.03;4957697;28;20509;-81
2023/09/09 05:07:51;;;;;;;8.93;6.40;;;;;;;19.90;66.06;99999.94;4946702;28;20047;-81
2023/09/09 05:10:19;;;;;;;8.02;6.55;;;;;;;19.88;66.06;99996.59;4946316;28;20051;-81
2023/09/09 05:12:47;;;;;;;7.78;6.28;;;;;;;19.87;66.01;99998.47;4933639;28;20051;-81
2023/09/09 05:15:16;;;;;;;8.85;6.13;;;;;;;19.90;65.97;99999.94;4963619;28;20415;-82
2023/09/09 05:17:43;;;;;;;8.77;5.93;;;;;;;19.87;66.11;100003.00;4931900;28;20047;-81
2023/09/09 05:20:10;;;;;;;10.52;6.43;;;;;;;19.85;66.26;100003.22;4960398;28;20046;-81
2023/09/09 05:22:37;;;;;;;7.82;6.32;;;;;;;19.86;66.52;100004.03;4938331;28;20039;-81
2023/09/09 05:25:05;;;;;;;7.97;6.57;;;;;;;19.86;66.46;100009.44;4934112;28;20046;-81
2023/09/09 05:27:31;;;;;;;8.80;6.30;;;;;;;19.88;66.26;100004.69;4932200;28;20050;-81
2023/09/09 05:29:58;;;;;;;13.25;6.90;;;;;;;19.90;66.38;100008.03;4951125;28;20077;-81
2023/09/09 05:32:25;;;;;;;9.75;6.60;;;;;;;19.88;66.42;100007.38;4925899;28;20055;-81
2023/09/09 05:34:52;;;;;;;7.65;6.85;;;;;;;19.87;66.53;100009.25;4945590;28;20177;-81
2023/09/09 05:37:19;;;;;;;9.02;6.75;;;;;;;19.89;66.68;100001.78;4951716;28;20368;-81
2023/09/09 05:39:46;;;;;;;8.90;6.60;;;;;;;19.88;66.61;100010.91;4932419;28;20400;-80
2023/09/09 05:42:13;;;;;;;9.70;6.38;;;;;;;19.93;66.75;100010.34;4915281;28;20454;-81
2023/09/09 05:44:40;;;;;;;8.98;7.03;;;;;;;19.91;66.20;100001.59;4930264;28;20138;-82
2023/09/09 05:47:08;;;;;;;9.45;7.35;;;;;;;19.92;65.83;100022.13;4946935;28;20053;-81
2023/09/09 05:49:36;;;;;;;10.85;6.88;;;;;;;19.94;66.05;100020.06;4931725;28;20043;-81
2023/09/09 05:52:08;;;;;;;9.07;6.47;;;;;;;19.91;66.06;100018.59;4917960;28;20133;-81
2023/09/09 05:54:35;;;;;;;12.18;6.90;;;;;;;19.92;65.93;100022.97;4963523;28;20070;-81
2023/09/09 05:57:02;;;;;;;8.57;6.85;;;;;;;19.94;65.84;100020.91;4959575;28;20065;-81
2023/09/09 05:59:29;;;;;;;10.15;6.97;;;;;;;19.95;65.80;100013.69;4955765;28;20051;-81
2023/09/09 06:01:56;;;;;;;8.98;6.40;;;;;;;19.94;65.87;100020.06;4931820;28;20054;-81
2023/09/09 06:04:23;;;;;;;9.05;6.50;;;;;;;19.96;65.91;100023.41;4946555;28;20459;-81
2023/09/09 06:06:51;;;;;;;9.80;7.05;;;;;;;19.97;65.78;100018.84;4956895;28;20047;-81
2023/09/09 06:09:17;;;;;;;8.45;6.90;;;;;;;20.00;66.01;100018.47;4946065;28;20055;-81
2023/09/09 06:11:44;;;;;;;9.48;7.28;;;;;;;20.03;65.93;100027.00;4929223;28;20124;-82
2023/09/09 06:14:12;;;;;;;11.35;6.78;;;;;;;20.06;66.13;100032.00;4946844;28;20062;-81
2023/09/09 06:16:38;;;;;;;9.77;7.55;;;;;;;20.08;66.06;100032.66;4930794;28;20047;-81
2023/09/09 06:19:06;;;;;;;8.80;7.28;;;;;;;20.10;66.12;100025.22;4950967;28;20133;-81
2023/09/09 06:21:33;;;;;;;8.50;6.38;;;;;;;20.12;66.12;100042.03;4904326;28;20138;-81
2023/09/09 06:24:00;;;;;;;11.77;7.22;;;;;;;20.15;66.42;100036.25;4913003;28;20063;-81
2023/09/09 06:26:33;;;;;;;10.35;8.02;;;;;;;20.20;66.24;100034.81;4930758;28;20518;-81
2023/09/09 06:29:01;;;;;;;10.55;7.35;;;;;;;20.18;66.17;100035.03;4952770;28;20178;-81
2023/09/09 06:31:28;;;;;;;10.05;7.25;;;;;;;20.17;66.25;100038.75;4945209;28;20426;-81
2023/09/09 06:33:56;;;;;;;8.23;7.22;;;;;;;20.14;66.32;100034.56;4923815;28;20138;-81
2023/09/09 06:36:23;;;;;;;9.68;6.90;;;;;;;20.16;66.30;100029.81;4949839;28;20039;-81
2023/09/09 06:38:51;;;;;;;9.90;6.70;;;;;;;20.18;66.60;100040.44;4928382;28;20046;-87
2023/09/09 06:41:17;;;;;;;10.25;7.55;;;;;;;20.17;66.61;100044.13;4941977;28;20074;-87
2023/09/09 06:43:44;;;;;;;9.40;7.22;;;;;;;20.19;66.87;100046.66;4955566;28;20078;-88
2023/09/09 06:46:11;;;;;;;7.72;6.70;;;;;;;20.23;67.19;100054.16;4928778;28;20047;-86
2023/09/09 06:48:38;;;;;;;11.25;7.75;;;;;;;20.27;67.12;100044.66;4929706;28;20094;-89
2023/09/09 06:51:05;;;;;;;12.00;7.00;;;;;;;20.31;67.96;100053.19;4955523;28;20047;-90
2023/09/09 06:53:31;;;;;;;8.25;6.75;;;;;;;20.39;67.62;100050.38;4924043;28;20053;-83
2023/09/09 06:55:58;;;;;;;10.93;7.72;;;;;;;20.40;67.33;100054.72;4959361;28;20051;-89
2023/09/09 06:58:25;;;;;;;10.82;7.10;;;;;;;20.39;67.23;100061.16;4914867;28;20046;-88
2023/09/09 07:00:52;;;;;;;10.82;7.65;;;;;;;20.41;67.21;100051.00;4951703;28;20446;-88
2023/09/09 07:03:20;;;;;;;12.93;7.65;;;;;;;20.47;67.72;100054.78;4938306;28;20046;-88
2023/09/09 07:05:47;;;;;;;10.73;7.07;;;;;;;20.50;67.54;100062.47;4966199;28;20685;-89
2023/09/09 07:08:14;;;;;;;8.55;7.45;;;;;;;20.51;67.76;100059.59;4936521;28;20451;-90
2023/09/09 07:10:53;;;;;;;9.10;7.68;;;;;;;20.49;68.19;100053.56;4931137;28;20039;-92
2023/09/09 07:13:23;;;;;;;9.57;7.60;;;;;;;20.57;67.61;100053.44;4914415;28;20497;-81
2023/09/09 07:15:52;;;;;;;15.05;7.20;;;;;;;20.62;67.69;100068.22;4942911;28;20123;-81
2023/09/09 07:18:19;;;;;;;10.75;7.85;;;;;;;20.62;67.64;100058.25;4949468;28;20934;-79
2023/09/09 07:20:46;;;;;;;11.70;7.65;;;;;;;20.65;67.42;100054.34;4945230;28;20043;-78
2023/09/09 07:23:14;;;;;;;11.82;7.35;;;;;;;20.67;67.80;100053.09;4946512;28;20495;-78
2023/09/09 07:25:42;;;;;;;10.77;7.65;;;;;;;20.72;67.96;100055.22;4946637;28;20062;-78
2023/09/09 07:28:11;;;;;;;10.20;7.57;;;;;;;20.73;67.90;100057.72;4941432;28;20046;-79
2023/09/09 07:30:38;;;;;;;10.02;7.78;;;;;;;20.75;67.90;100052.13;4942496;28;20507;-78
2023/09/09 07:33:04;;;;;;;9.18;7.70;;;;;;;20.79;68.15;100056.94;4927893;28;20514;-78
2023/09/09 07:35:35;;;;;;;10.77;7.88;;;;;;;20.84;68.22;100056.34;4900252;28;20042;-78
2023/09/09 07:38:04;;;;;;;9.80;7.03;;;;;;;20.88;68.12;100064.88;4958161;28;20120;-79
2023/09/09 07:40:30;;;;;;;11.75;8.35;;;;;;;20.90;68.24;100063.66;4953831;28;20086;-83
2023/09/09 07:42:58;;;;;;;11.95;7.70;;;;;;;20.93;68.49;100057.03;4913864;28;20134;-79
2023/09/09 07:45:26;;;;;;;10.85;8.00;;;;;;;20.96;68.28;100062.00;4940438;28;20097;-78
2023/09/09 07:47:53;;;;;;;13.70;7.75;;;;;;;20.98;67.76;100057.25;4913556;28;20122;-81
2023/09/09 07:50:20;;;;;;;12.10;7.40;;;;;;;20.98;67.56;100052.69;4924393;28;20050;-81
2023/09/09 07:52:47;;;;;;;9.30;7.32;;;;;;;21.01;67.33;100055.00;4926948;28;20047;-82
2023/09/09 07:55:14;;;;;;;9.52;8.02;;;;;;;21.03;67.73;100058.31;4944769;28;20054;-83
2023/09/09 07:57:41;;;;;;;11.13;8.32;;;;;;;21.10;67.33;100066.47;4930299;28;20126;-81
2023/09/09 08:00:08;;;;;;;12.63;8.00;;;;;;;21.11;67.36;100059.19;4933498;28;20049;-82
2023/09/09 08:02:38;;;;;;;11.05;7.45;;;;;;;21.16;67.49;100071.06;4927726;28;20054;-82
2023/09/09 08:05:06;;;;;;;11.05;7.93;;;;;;;21.18;67.35;100060.91;4948009;28;20055;-80
2023/09/09 08:07:33;;;;;;;9.85;8.45;;;;;;;21.21;67.29;100059.69;4938641;28;20418;-81
2023/09/09 08:10:00;;;;;;;11.45;7.70;;;;;;;21.27;67.41;100066.13;4925028;28;20051;-81
2023/09/09 08:12:27;;;;;;;10.48;8.15;;;;;;;21.30;67.76;100066.59;4943336;28;20134;-82
2023/09/09 08:15:06;;;;;;;8.32;7.25;;;;;;;21.28;67.61;100057.03;4952985;28;20044;-81
2023/09/09 08:17:33;;;;;;;10.63;7.97;;;;;;;21.34;67.13;100048.09;4933379;28;20051;-80
2023/09/09 08:20:01;;;;;;;9.60;7.28;;;;;;;21.38;67.44;100060.19;4932701;28;20080;-81
2023/09/09 08:22:29;;;;;;;10.13;7.70;;;;;;;21.42;67.33;100059.63;4948817;28;20051;-82
2023/09/09 08:24:56;;;;;;;10.77;7.68;;;;;;;21.45;67.01;100056.50;4952496;28;20065;-80
2023/09/09 08:27:23;;;;;;;10.07;8.05;;;;;;;21.50;67.38;100061.31;4931124;28;20521;-80
2023/09/09 08:29:50;;;;;;;11.02;7.40;;;;;;;21.54;67.49;100050.94;4963827;28;20043;-81
2023/09/09 08:32:17;;;;;;;10.15;7.32;;;;;;;21.58;67.50;100058.44;4913968;28;20043;-81
2023/09/09 08:34:43;;;;;;;12.07;7.70;;;;;;;21.62;66.98;100058.84;4932146;28;20050;-80
2023/09/09 08:37:10;;;;;;;11.82;7.82;;;;;;;21.64;67.20;100059.47;4916809;28;20046;-80
2023/09/09 08:39:38;;;;;;;10.18;7.65;;;;;;;21.64;66.91;100046.81;4931696;28;20510;-81
2023/09/09 08:42:46;;;;;;;8.68;7.72;;;;;;;21.61;67.51;100058.03;4968762;28;20141;-80
2023/09/09 08:45:20;;;;;;;11.27;7.57;;;;;;;21.69;66.93;100062.41;4946909;28;20134;-81
2023/09/09 08:47:47;;;;;;;10.50;8.13;;;;;;;21.75;66.71;100061.59;4941639;28;20067;-80
2023/09/09 08:50:16;;;;;;;12.77;8.07;;;;;;;21.77;67.09;100064.09;4933928;28;20122;-82
2023/09/09 08:52:42;;;;;;;9.20;7.63;;;;;;;21.77;67.21;100056.81;4947289;28;20066;-82
2023/09/09 08:55:10;;;;;;;12.38;8.70;;;;;;;21.83;67.30;100065.97;4943846;28;20062;-80
2023/09/09 08:57:37;;;;;;;8.77;7.63;;;;;;;21.86;67.42;100062.91;4936557;28;20390;-81
2023/09/09 09:00:05;;;;;;;9.52;8.02;;;;;;;21.88;67.93;100060.81;4969925;28;20058;-82
2023/09/09 09:02:33;;;;;;;10.20;8.35;;;;;;;21.91;68.14;100059.59;4930214;28;20043;-80
2023/09/09 09:05:03;;;;;;;12.90;8.70;;;;;;;21.94;67.92;100065.41;4947670;28;20051;-89
2023/09/09 09:07:32;;;;;;;10.07;8.57;;;;;;;21.99;67.92;100062.91;4930234;28;20074;-88
2023/09/09 09:10:06;;;;;;;10.25;8.95;;;;;;;22.03;68.03;100066.88;4918214;28;20559;-87
2023/09/09 09:12:35;;;;;;;11.25;8.95;;;;;;;22.04;68.73;100068.53;4954921;28;20499;-89
2023/09/09 09:15:03;;;;;;;12.82;9.50;;;;;;;22.10;68.50;100058.78;4948739;28;20403;-88
2023/09/09 09:17:31;;;;;;;10.18;8.93;;;;;;;22.14;68.28;100064.63;4933708;28;20058;-87
2023/09/09 09:19:57;;;;;;;13.20;9.00;;;;;;;22.20;68.66;100063.81;4950724;28;20106;-87
2023/09/09 09:22:25;;;;;;;9.43;8.45;;;;;;;22.22;69.41;100056.34;4942963;28;20105;-88
2023/09/09 09:24:52;;;;;;;15.57;9.48;;;;;;;22.25;69.18;100051.34;4921871;28;20050;-89
2023/09/09 09:27:18;;;;;;;13.15;8.77;;;;;;;22.29;69.70;100055.31;4943990;28;21199;-90
2023/09/09 09:29:45;;;;;;;9.98;8.88;;;;;;;22.33;69.24;100053.81;4950442;28;20053;-90
2023/09/09 09:32:12;;;;;;;10.98;8.48;;;;;;;22.37;69.57;100046.16;4958101;28;20085;-90
2023/09/09 09:34:39;;;;;;;12.38;10.02;;;;;;;22.38;69.64;100046.97;4954763;28;20050;-89
2023/09/09 09:37:10;;;;;;;11.02;8.93;;;;;;;22.42;69.73;100042.81;4935628;28;20062;-90
2023/09/09 09:39:37;;;;;;;9.75;8.25;;;;;;;22.46;70.20;100044.88;4954582;28;20102;-90
2023/09/09 09:42:04;;;;;;;10.63;8.15;;;;;;;22.49;69.86;100049.03;4951716;28;20058;-89
2023/09/09 09:44:31;;;;;;;11.15;8.30;;;;;;;22.50;69.79;100046.13;4931052;28;20042;-90
2023/09/09 09:47:03;;;;;;;9.95;8.07;;;;;;;22.49;70.03;100035.50;4937862;28;20086;-91
2023/09/09 09:49:41;;;;;;;8.73;7.80;;;;;;;22.49;70.80;100038.22;4936235;28;20051;-90
2023/09/09 09:52:09;;;;;;;11.77;7.50;;;;;;;22.58;69.78;100038.84;4953544;28;20149;-90
2023/09/09 09:54:37;;;;;;;12.05;9.07;;;;;;;22.62;70.09;100034.66;4958614;28;20054;-88
2023/09/09 09:57:04;;;;;;;12.90;9.35;;;;;;;22.63;70.80;100034.47;4946826;28;20517;-90
2023/09/09 09:59:33;;;;;;;10.77;8.55;;;;;;;22.66;70.55;100034.06;4938783;28;20163;-89
2023/09/09 10:02:03;;;;;;;11.32;8.73;;;;;;;22.66;70.42;100014.28;4954656;28;20119;-89
2023/09/09 10:04:40;;;;;;;9.85;8.63;;;;;;;22.69;70.65;100027.38;4914932;28;20402;-80
2023/09/09 10:07:13;;;;;;;9.93;8.57;;;;;;;22.70;70.03;100029.06;4943545;28;20542;-80
2023/09/09 10:09:58;;;;;;;11.73;8.25;;;;;;;22.70;70.74;100029.91;4943248;28;20133;-80
2023/09/09 10:12:54;;;;;;;9.23;8.23;;;;;;;22.76;70.34;100026.31;4944561;28;20130;-88
2023/09/09 10:15:21;;;;;;;10.13;8.23;;;;;;;22.82;70.63;100023.81;4944384;28;20051;-88
2023/09/09 10:17:50;;;;;;;11.00;8.25;;;;;;;22.85;70.37;100023.44;4946818;28;20135;-89
2023/09/09 10:20:18;;;;;;;11.32;8.02;;;;;;;22.87;70.29;100024.88;4926452;28;20130;-89
2023/09/09 10:22:47;;;;;;;10.20;8.30;;;;;;;22.89;70.42;100020.06;4924709;28;20054;-88
2023/09/09 10:25:14;;;;;;;11.23;8.50;;;;;;;22.93;70.13;100025.91;4924215;28;20077;-88
2023/09/09 10:27:41;;;;;;;10.48;8.43;;;;;;;22.95;70.64;100018.41;4937846;28;20553;-89
2023/09/09 10:30:08;;;;;;;10.88;7.65;;;;;;;22.98;70.53;100018.00;4954002;28;20051;-88
2023/09/09 10:32:36;;;;;;;9.07;7.57;;;;;;;23.01;70.84;100020.28;4946037;28;20051;-89
2023/09/09 10:35:06;;;;;;;8.98;7.68;;;;;;;23.01;70.59;100016.75;4941243;28;20047;-88
2023/09/09 10:37:35;;;;;;;10.02;8.70;;;;;;;23.04;70.79;100013.59;4950499;28;20050;-88
2023/09/09 10:40:04;;;;;;;10.88;8.32;;;;;;;23.05;70.43;100007.13;4945536;28;20058;-88
2023/09/09 10:42:31;;;;;;;11.30;8.50;;;;;;;23.04;70.23;100009.00;4942836;28;20054;-91
2023/09/09 10:45:24;;;;;;;11.30;7.93;;;;;;;23.03;71.12;99999.25;4941819;28;20559;-90
2023/09/09 10:48:00;;;;;;;13.00;8.93;;;;;;;23.09;70.38;100001.06;4959076;28;20039;-91
2023/09/09 10:50:38;;;;;;;14.00;9.18;;;;;;;23.13;71.10;99999.63;4948560;28;20046;-92
2023/09/09 10:53:30;;;;;;;10.95;9.02;;;;;;;23.17;70.58;100000.84;4935496;28;20050;-91
2023/09/09 10:55:59;;;;;;;13.52;9.45;;;;;;;23.25;70.28;99998.94;4917948;28;20503;-93
2023/09/09 10:58:35;;;;;;;8.95;7.53;;;;;;;23.24;69.82;100005.41;4956321;28;20055;-92
2023/09/09 11:01:02;;;;;;;11.65;8.40;;;;;;;23.27;70.07;99997.69;4927144;28;20043;-93
2023/09/09 11:03:42;;;;;;;10.98;8.15;;;;;;;23.24;69.43;99995.41;4916075;28;20062;-92
2023/09/09 11:06:19;;;;;;;11.55;9.13;;;;;;;23.28;69.44;100001.22;4932647;28;20039;-91
2023/09/09 11:08:47;;;;;;;17.50;13.50;;;;;;;23.35;69.67;99997.44;4931418;28;20129;-90
2023/09/09 11:11:18;;;;;;;11.07;9.70;;;;;;;23.38;69.66;100001.59;4914710;28;20047;-90
2023/09/09 11:13:54;;;;;;;10.73;8.40;;;;;;;23.36;69.28;99999.09;4918465;28;20112;-91
2023/09/09 11:16:34;;;;;;;16.27;13.27;;;;;;;23.43;69.48;99996.34;4927078;28;20460;-81
2023/09/09 11:19:05;;;;;;;11.35;10.10;;;;;;;23.47;69.47;99997.59;4921623;28;20053;-82
2023/09/09 11:21:34;;;;;;;11.25;8.07;;;;;;;23.53;69.26;99998.59;4954268;28;20473;-83
2023/09/09 11:24:02;;;;;;;11.40;10.20;;;;;;;23.56;69.60;100000.88;4927593;28;20601;-82
2023/09/09 11:26:29;;;;;;;11.25;8.55;;;;;;;23.57;68.98;99997.97;4944748;28;20054;-82
2023/09/09 11:28:57;;;;;;;11.10;8.70;;;;;;;23.61;68.77;99992.94;4929028;28;20118;-80